Time;durP1;ratioP1;P1;durP2;ratioP2;P2;SDS_P1;SDS_P2;PMS_P1;PMS_P2;Temp;Humidity;BMP_temperature;BMP_pressure;BME280_temperature;BME280_humidity;BME280_pressure;Samples;Min_cycle;Max_cycle;Signal;HPM_P1;HPM_P2
2023/10/09 00:01:17;;;;;;;7.07;4.40;;;16.70;99.90;;;;;;5034416;28;20406;-74
2023/10/09 00:03:52;;;;;;;7.77;5.20;;;16.70;99.90;;;;;;5034367;28;20425;-74
2023/10/09 00:06:24;;;;;;;7.30;5.37;;;16.60;99.90;;;;;;5034435;28;20186;-74
2023/10/09 00:08:54;;;;;;;9.90;5.40;;;16.50;99.90;;;;;;5034248;28;20976;-74
2023/10/09 00:11:26;;;;;;;6.53;4.47;;;16.50;99.90;;;;;;5033591;28;20406;-74
2023/10/09 00:13:57;;;;;;;7.13;4.43;;;16.40;99.90;;;;;;5034335;28;20437;-74
2023/10/09 00:16:32;;;;;;;6.13;4.37;;;16.40;99.90;;;;;;5032897;28;20568;-74
2023/10/09 00:19:20;;;;;;;14.83;6.17;;;16.30;99.90;;;;;;5032121;28;20835;-74
2023/10/09 00:21:47;;;;;;;9.53;5.90;;;16.30;99.90;;;;;;5034272;28;20413;-74
2023/10/09 00:24:13;;;;;;;6.47;5.03;;;16.30;99.90;;;;;;5033955;28;20413;-74
2023/10/09 00:26:45;;;;;;;9.13;4.87;;;16.20;99.90;;;;;;5034007;28;20430;-74
2023/10/09 00:29:15;;;;;;;6.27;4.10;;;16.20;99.90;;;;;;5033429;28;20446;-74
2023/10/09 00:31:49;;;;;;;7.67;5.20;;;16.20;99.90;;;;;;5036568;28;20446;-74
2023/10/09 00:34:19;;;;;;;10.20;5.10;;;16.20;99.90;;;;;;5033780;28;20418;-74
2023/10/09 00:36:52;;;;;;;6.60;5.30;;;16.10;99.90;;;;;;5033474;28;20480;-73
2023/10/09 00:42:06;;;;;;;7.70;4.70;;;16.00;99.90;;;;;;5034016;28;20452;-74
2023/10/09 00:44:38;;;;;;;8.63;5.40;;;16.00;99.90;;;;;;5033784;28;20909;-75
2023/10/09 00:47:20;;;;;;;7.07;4.90;;;15.90;99.90;;;;;;5033699;28;20515;-75
2023/10/09 00:49:59;;;;;;;8.00;5.60;;;15.90;99.90;;;;;;5033597;28;20410;-75
2023/10/09 00:52:32;;;;;;;8.83;4.80;;;15.80;99.90;;;;;;5032291;28;20414;-75
2023/10/09 00:55:36;;;;;;;10.60;6.00;;;15.80;99.90;;;;;;5033715;28;20452;-74
2023/10/09 00:57:57;;;;;;;8.07;4.90;;;15.70;99.90;;;;;;5033070;28;20826;-74
2023/10/09 01:00:45;;;;;;;9.37;5.27;;;15.60;99.90;;;;;;5033417;28;20390;-74
2023/10/09 01:05:58;;;;;;;8.77;5.47;;;15.40;99.90;;;;;;5033448;28;20469;-75
2023/10/09 01:08:43;;;;;;;8.33;5.07;;;15.30;99.90;;;;;;5033205;28;20406;-75
2023/10/09 01:11:21;;;;;;;8.13;4.90;;;15.20;99.90;;;;;;5033311;28;20417;-74
2023/10/09 01:16:16;;;;;;;8.30;4.73;;;15.10;99.90;;;;;;5033032;28;20816;-74
2023/10/09 01:18:43;;;;;;;7.70;4.70;;;15.00;99.90;;;;;;5033001;28;20541;-75
2023/10/09 01:21:13;;;;;;;6.97;5.30;;;15.10;99.90;;;;;;5031831;28;20779;-75
2023/10/09 01:24:02;;;;;;;11.73;5.50;;;15.20;99.90;;;;;;5033060;28;20398;-75
2023/10/09 01:26:45;;;;;;;6.20;4.20;;;15.20;99.90;;;;;;5032840;28;20429;-75
2023/10/09 01:29:14;;;;;;;7.97;4.33;;;15.30;99.90;;;;;;5032874;28;20445;-75
2023/10/09 01:31:46;;;;;;;13.30;5.50;;;15.40;99.90;;;;;;5038519;28;20498;-74
2023/10/09 01:34:12;;;;;;;8.43;5.10;;;15.50;99.90;;;;;;5040538;28;20441;-75
2023/10/09 01:36:39;;;;;;;7.17;4.40;;;15.50;99.90;;;;;;5032612;28;20508;-74
2023/10/09 01:39:25;;;;;;;10.23;5.43;;;15.50;99.90;;;;;;5032460;28;20520;-75
2023/10/09 01:41:58;;;;;;;8.50;4.83;;;15.50;99.90;;;;;;5032453;28;20394;-75
2023/10/09 01:44:34;;;;;;;7.60;4.90;;;15.60;99.90;;;;;;5031286;28;20460;-74
2023/10/09 01:47:07;;;;;;;9.60;5.50;;;15.60;99.90;;;;;;5032599;28;20432;-74
2023/10/09 01:49:36;;;;;;;6.40;4.40;;;15.50;99.90;;;;;;5032456;28;20406;-75
2023/10/09 01:52:07;;;;;;;7.17;4.80;;;15.50;99.90;;;;;;5032435;28;20399;-74
2023/10/09 01:54:36;;;;;;;8.67;5.10;;;15.50;99.90;;;;;;5032505;28;20424;-74
2023/10/09 01:57:05;;;;;;;6.27;4.47;;;15.50;99.90;;;;;;5031924;28;20529;-75
2023/10/09 01:59:32;;;;;;;6.93;4.70;;;15.50;99.90;;;;;;5032195;28;20402;-75
2023/10/09 02:02:00;;;;;;;5.63;4.60;;;15.50;99.90;;;;;;5032375;28;20406;-74
2023/10/09 02:04:26;;;;;;;7.70;5.17;;;15.50;99.90;;;;;;5031010;28;20414;-75
2023/10/09 02:06:52;;;;;;;8.47;4.40;;;15.50;99.90;;;;;;5032162;28;21006;-74
2023/10/09 02:09:25;;;;;;;8.73;5.20;;;15.60;99.90;;;;;;5030774;28;20402;-75
2023/10/09 02:11:51;;;;;;;7.93;4.03;;;15.60;99.90;;;;;;5032217;28;20887;-74
2023/10/09 02:14:20;;;;;;;7.70;4.27;;;15.60;99.90;;;;;;5031170;28;20497;-74
2023/10/09 02:17:02;;;;;;;4.83;3.93;;;15.60;99.90;;;;;;5031871;28;20179;-75
2023/10/09 02:19:31;;;;;;;6.73;4.40;;;15.70;99.90;;;;;;5031948;28;20410;-75
2023/10/09 02:21:57;;;;;;;8.73;4.97;;;15.80;99.90;;;;;;5032166;28;20410;-75
2023/10/09 02:24:28;;;;;;;7.40;4.60;;;15.80;99.90;;;;;;5032026;28;20414;-75
2023/10/09 02:29:23;;;;;;;5.67;4.00;;;16.00;99.90;;;;;;5032095;28;20414;-75
2023/10/09 02:31:55;;;;;;;5.83;4.60;;;16.00;99.90;;;;;;5023411;28;20190;-75
2023/10/09 02:34:27;;;;;;;6.80;4.23;;;16.00;99.90;;;;;;5030413;28;20429;-75
2023/10/09 02:37:05;;;;;;;5.77;4.10;;;16.10;99.90;;;;;;5031296;28;20442;-74
2023/10/09 02:39:36;;;;;;;6.30;4.43;;;16.10;99.90;;;;;;5031785;28;20414;-75
2023/10/09 02:42:08;;;;;;;7.70;4.10;;;16.20;99.90;;;;;;5031719;28;20398;-75
2023/10/09 02:44:39;;;;;;;7.77;4.37;;;16.10;99.90;;;;;;5031657;28;20913;-75
2023/10/09 02:47:11;;;;;;;13.00;6.20;;;16.10;99.90;;;;;;5031699;28;20422;-75
2023/10/09 02:49:40;;;;;;;4.87;4.27;;;16.10;99.90;;;;;;5031180;28;20780;-75
2023/10/09 02:52:10;;;;;;;7.00;5.17;;;16.00;99.90;;;;;;5031342;28;20750;-74
2023/10/09 02:54:40;;;;;;;5.60;4.27;;;15.90;99.90;;;;;;5035018;28;20822;-75
2023/10/09 02:59:32;;;;;;;9.60;4.10;;;15.90;99.90;;;;;;5035029;28;20422;-75
2023/10/09 03:01:59;;;;;;;8.90;4.70;;;15.80;99.90;;;;;;5035567;28;20623;-75
2023/10/09 03:04:31;;;;;;;5.87;5.03;;;15.80;99.90;;;;;;5035700;28;20242;-75
2023/10/09 03:07:00;;;;;;;6.20;5.40;;;15.70;99.90;;;;;;5035638;28;20480;-75
2023/10/09 03:09:27;;;;;;;7.23;5.00;;;15.70;99.90;;;;;;5035447;28;20452;-75
2023/10/09 03:12:01;;;;;;;8.93;4.33;;;15.70;99.90;;;;;;5035622;28;20750;-75
2023/10/09 03:14:31;;;;;;;10.10;5.00;;;15.70;99.90;;;;;;5035477;28;20451;-75
2023/10/09 03:16:57;;;;;;;5.30;3.80;;;15.70;99.90;;;;;;5035261;28;20422;-75
2023/10/09 03:19:28;;;;;;;8.07;4.93;;;15.60;99.90;;;;;;5035108;28;20398;-74
2023/10/09 03:21:54;;;;;;;5.60;4.37;;;15.70;99.90;;;;;;5035318;28;20460;-74
2023/10/09 03:24:22;;;;;;;6.90;4.57;;;15.60;99.90;;;;;;5035280;28;20501;-74
2023/10/09 03:26:49;;;;;;;9.20;7.13;;;15.60;99.90;;;;;;5035031;28;20414;-75
2023/10/09 03:29:14;;;;;;;9.43;5.17;;;15.60;99.90;;;;;;5033857;28;20414;-75
2023/10/09 03:31:42;;;;;;;10.03;4.60;;;15.70;99.90;;;;;;5029522;28;20421;-74
2023/10/09 03:34:10;;;;;;;5.33;4.80;;;15.60;99.90;;;;;;5033677;28;20172;-75
2023/10/09 03:36:39;;;;;;;7.70;3.80;;;15.60;99.90;;;;;;5034768;28;20483;-75
2023/10/09 03:39:24;;;;;;;6.60;4.33;;;15.60;99.90;;;;;;5034887;28;20445;-75
2023/10/09 03:41:50;;;;;;;6.70;5.13;;;15.60;99.90;;;;;;5034858;28;20463;-75
2023/10/09 03:44:18;;;;;;;7.23;5.00;;;15.70;99.90;;;;;;5034869;28;20437;-75
2023/10/09 03:46:44;;;;;;;7.97;4.60;;;15.70;99.90;;;;;;5034839;28;20728;-75
2023/10/09 03:49:15;;;;;;;6.90;4.30;;;15.70;99.90;;;;;;5034722;28;20417;-75
2023/10/09 03:51:42;;;;;;;9.03;5.07;;;15.80;99.90;;;;;;5034699;28;20407;-75
2023/10/09 03:54:08;;;;;;;6.57;5.10;;;15.80;99.90;;;;;;5033125;28;20418;-75
2023/10/09 03:56:34;;;;;;;8.70;4.90;;;15.90;99.90;;;;;;5034390;28;20450;-75
2023/10/09 03:59:01;;;;;;;6.47;4.40;;;16.00;99.90;;;;;;5034495;28;20561;-75
2023/10/09 04:01:29;;;;;;;9.30;4.70;;;16.10;99.90;;;;;;5033429;28;20407;-75
2023/10/09 04:03:59;;;;;;;5.73;4.00;;;16.20;99.90;;;;;;5026358;28;20414;-75
2023/10/09 04:06:30;;;;;;;5.03;4.17;;;16.30;99.90;;;;;;5034136;28;21063;-75
2023/10/09 04:08:58;;;;;;;4.43;4.00;;;16.50;99.90;;;;;;5033050;28;20418;-74
2023/10/09 04:11:24;;;;;;;6.70;4.40;;;16.50;99.90;;;;;;5034613;28;20409;-75
2023/10/09 04:13:52;;;;;;;4.63;4.23;;;16.60;99.90;;;;;;5034379;28;21001;-74
2023/10/09 04:18:52;;;;;;;8.13;5.57;;;16.80;99.90;;;;;;5034088;28;20861;-75
2023/10/09 04:21:34;;;;;;;7.60;4.70;;;16.80;99.90;;;;;;5034298;28;20445;-75
2023/10/09 04:24:22;;;;;;;7.60;4.10;;;16.80;99.90;;;;;;5032950;28;20167;-75
2023/10/09 04:26:48;;;;;;;5.20;3.90;;;16.90;99.90;;;;;;5034091;28;20419;-75
2023/10/09 04:29:23;;;;;;;7.23;4.20;;;17.00;99.90;;;;;;5032672;28;20410;-75
2023/10/09 04:31:51;;;;;;;7.40;3.93;;;17.10;99.90;;;;;;5033550;28;20421;-75
2023/10/09 04:34:22;;;;;;;4.93;3.80;;;17.20;99.90;;;;;;5038523;28;20433;-74
2023/10/09 04:36:49;;;;;;;8.10;4.90;;;17.20;99.90;;;;;;5033863;28;20437;-75
2023/10/09 04:39:25;;;;;;;7.67;5.00;;;17.20;99.90;;;;;;5037465;28;20493;-75
2023/10/09 04:44:22;;;;;;;8.53;4.00;;;17.00;99.90;;;;;;5034089;28;20823;-74
2023/10/09 04:50:02;;;;;;;4.63;3.60;;;17.00;99.90;;;;;;5033903;28;20405;-75
2023/10/09 05:00:46;;;;;;;7.20;4.33;;;16.90;99.90;;;;;;5035776;28;20781;-74
2023/10/09 05:03:12;;;;;;;8.00;4.77;;;16.90;99.90;;;;;;5032690;28;20928;-75
2023/10/09 05:08:29;;;;;;;5.93;4.20;;;16.90;99.90;;;;;;5037539;28;20422;-75
2023/10/09 05:18:55;;;;;;;7.73;4.33;;;17.10;99.90;;;;;;5013310;28;20826;-75
2023/10/09 05:29:19;;;;;;;7.30;4.47;;;17.10;99.90;;;;;;5013193;28;20763;-74
2023/10/09 05:34:22;;;;;;;3.93;3.23;;;17.20;99.90;;;;;;5046075;28;20740;-75
2023/10/09 05:36:48;;;;;;;6.27;4.50;;;17.30;99.90;;;;;;5032613;28;20508;-75
2023/10/09 05:39:18;;;;;;;8.70;4.73;;;17.30;99.90;;;;;;5032577;28;20465;-74
2023/10/09 05:53:04;;;;;;;11.30;3.80;;;17.20;99.90;;;;;;5050099;28;20420;-74
2023/10/09 06:03:38;;;;;;;10.93;3.80;;;17.40;99.90;;;;;;5032689;28;20417;-75
2023/10/09 06:06:04;;;;;;;10.20;5.43;;;17.40;99.90;;;;;;5032188;28;20425;-75
2023/10/09 06:14:13;;;;;;;6.23;4.30;;;17.50;99.90;;;;;;5032172;28;20920;-74
2023/10/09 06:16:41;;;;;;;7.13;4.83;;;17.60;99.90;;;;;;5032080;28;20433;-75
2023/10/09 06:19:12;;;;;;;8.00;4.57;;;17.70;99.90;;;;;;5031904;28;20458;-75
2023/10/09 06:21:39;;;;;;;7.07;4.20;;;17.70;99.90;;;;;;5041243;28;20916;-75
2023/10/09 06:24:14;;;;;;;6.77;4.43;;;17.80;99.90;;;;;;5032034;28;20422;-75
2023/10/09 06:26:51;;;;;;;6.83;4.23;;;17.80;99.90;;;;;;5030265;28;20473;-75
2023/10/09 06:29:33;;;;;;;7.80;5.10;;;17.90;99.90;;;;;;5029623;28;20418;-75
2023/10/09 06:32:05;;;;;;;6.50;4.00;;;18.00;99.90;;;;;;5030992;28;20822;-75
2023/10/09 06:34:35;;;;;;;9.60;5.20;;;18.00;99.90;;;;;;5030867;28;20488;-75
2023/10/09 06:37:17;;;;;;;6.13;4.20;;;18.00;99.90;;;;;;5032858;28;20496;-75
2023/10/09 06:45:14;;;;;;;6.10;4.27;;;18.20;99.90;;;;;;5031492;28;20929;-75
2023/10/09 06:47:41;;;;;;;6.33;4.23;;;18.30;99.90;;;;;;5042570;28;20466;-75
2023/10/09 06:56:01;;;;;;;7.57;4.17;;;18.50;99.90;;;;;;5051586;28;20863;-76
2023/10/09 06:58:28;;;;;;;4.10;3.70;;;18.60;99.90;;;;;;5051533;28;20461;-75
2023/10/09 07:03:32;;;;;;;7.83;4.20;;;18.80;99.90;;;;;;5051084;28;20939;-74
2023/10/09 07:06:23;;;;;;;6.47;3.97;;;18.90;99.90;;;;;;5051747;28;20481;-75
2023/10/09 07:08:59;;;;;;;8.43;3.87;;;18.90;99.90;;;;;;5050254;28;20501;-74
2023/10/09 07:11:58;;;;;;;4.60;3.40;;;18.90;99.90;;;;;;5051692;28;20466;-76
2023/10/09 07:17:00;;;;;;;9.87;7.10;;;19.00;99.90;;;;;;5031386;28;20436;-75
2023/10/09 07:24:58;;;;;;;9.80;5.67;;;19.20;99.90;;;;;;5031749;28;20406;-74
2023/10/09 07:27:48;;;;;;;4.87;4.10;;;19.30;99.90;;;;;;5031339;28;20418;-75
2023/10/09 07:38:09;;;;;;;7.60;4.93;;;19.80;99.90;;;;;;5031198;28;20460;-74
2023/10/09 07:43:28;;;;;;;8.20;4.43;;;20.20;99.90;;;;;;5038513;28;20451;-74
2023/10/09 07:48:26;;;;;;;7.77;4.13;;;20.30;99.90;;;;;;5034709;28;20417;-75
2023/10/09 07:50:57;;;;;;;6.20;4.03;;;20.30;99.90;;;;;;5035935;28;20483;-75
2023/10/09 07:53:26;;;;;;;6.40;3.60;;;20.30;99.90;;;;;;5034798;28;20422;-74
2023/10/09 07:55:58;;;;;;;8.37;4.17;;;20.20;99.90;;;;;;5043606;28;20450;-75
2023/10/09 07:58:27;;;;;;;9.10;5.03;;;20.10;99.90;;;;;;5032994;28;20462;-74
2023/10/09 08:01:06;;;;;;;10.40;6.73;;;20.10;99.90;;;;;;5034668;28;20772;-74
2023/10/09 08:03:33;;;;;;;6.87;4.53;;;20.10;99.90;;;;;;5040687;28;20413;-74
2023/10/09 08:07:06;;;;;;;5.00;3.90;;;20.10;99.90;;;;;;5033045;28;20431;-75
2023/10/09 08:19:56;;;;;;;6.47;4.13;;;19.90;99.90;;;;;;5014679;28;20422;-74
2023/10/09 08:24:55;;;;;;;6.20;4.70;;;20.00;99.90;;;;;;5014414;28;20395;-74
2023/10/09 08:33:01;;;;;;;6.73;4.73;;;20.10;99.90;;;;;;5041907;28;20433;-75
2023/10/09 08:35:47;;;;;;;7.17;4.00;;;20.20;99.90;;;;;;5034221;28;20450;-75
2023/10/09 08:38:23;;;;;;;6.80;3.83;;;20.50;99.90;;;;;;5028473;28;20450;-74
2023/10/09 08:40:50;;;;;;;9.70;5.77;;;20.40;99.90;;;;;;5034576;28;20418;-74
2023/10/09 08:43:18;;;;;;;5.50;3.80;;;20.50;99.90;;;;;;5034868;28;20787;-75
2023/10/09 08:45:53;;;;;;;8.13;4.90;;;20.40;99.90;;;;;;5035834;28;20488;-75
2023/10/09 08:48:21;;;;;;;5.93;4.13;;;20.50;99.90;;;;;;5033440;28;20496;-75
2023/10/09 08:50:49;;;;;;;6.10;4.13;;;20.60;99.90;;;;;;5039753;28;20441;-75
2023/10/09 08:53:18;;;;;;;4.73;3.87;;;20.70;99.90;;;;;;5033513;28;20410;-75
2023/10/09 08:55:46;;;;;;;7.17;4.33;;;20.90;99.90;;;;;;5034938;28;20454;-70
2023/10/09 09:01:00;;;;;;;4.97;4.20;;;21.30;99.90;;;;;;5033507;28;20900;-70
2023/10/09 09:03:26;;;;;;;6.40;4.10;;;21.60;99.90;;;;;;5033458;28;20398;-70
2023/10/09 09:06:02;;;;;;;5.40;4.60;;;21.80;99.90;;;;;;5032032;28;20480;-70
2023/10/09 09:08:30;;;;;;;7.93;4.33;;;22.00;99.90;;;;;;5033170;28;20437;-70
2023/10/09 09:11:12;;;;;;;6.10;4.03;;;22.10;99.90;;;;;;5033391;28;20402;-70
2023/10/09 09:13:41;;;;;;;7.93;5.37;;;22.30;99.90;;;;;;5033348;28;20406;-69
2023/10/09 09:16:17;;;;;;;9.40;5.47;;;22.30;99.90;;;;;;5033101;28;20428;-70
2023/10/09 09:21:56;;;;;;;8.57;4.43;;;22.00;99.90;;;;;;5033438;28;20497;-70
2023/10/09 09:26:58;;;;;;;6.40;3.90;;;22.30;99.90;;;;;;5032906;28;20437;-69
2023/10/09 09:29:37;;;;;;;10.37;3.87;;;22.50;99.90;;;;;;5032654;28;20963;-69
2023/10/09 09:32:16;;;;;;;6.70;4.47;;;22.60;99.90;;;;;;5037225;28;20422;-70
2023/10/09 09:35:01;;;;;;;8.00;4.53;;;23.00;99.90;;;;;;5040184;28;20437;-70
2023/10/09 09:37:28;;;;;;;6.97;4.60;;;23.40;99.90;;;;;;5039741;28;20537;-70
2023/10/09 09:40:14;;;;;;;6.93;4.33;;;23.90;99.90;;;;;;5024599;28;20411;-70
2023/10/09 09:42:45;;;;;;;5.37;4.10;;;24.20;99.90;;;;;;5032724;28;20477;-70
2023/10/09 09:45:12;;;;;;;7.10;3.90;;;24.20;99.90;;;;;;5038270;28;20455;-70
2023/10/09 09:47:38;;;;;;;8.40;5.03;;;24.50;99.90;;;;;;5034530;28;20414;-70
2023/10/09 09:50:24;;;;;;;3.60;3.23;;;24.90;99.90;;;;;;5031336;28;20836;-70
2023/10/09 09:52:53;;;;;;;6.63;4.10;;;25.80;99.90;;;;;;5040238;28;20934;-70
2023/10/09 09:55:22;;;;;;;6.70;4.70;;;27.40;99.90;;;;;;5030917;28;20421;-70
2023/10/09 09:57:51;;;;;;;5.07;3.50;;;28.60;98.40;;;;;;5031094;28;20442;-70
2023/10/09 10:00:42;;;;;;;6.13;4.07;;;29.00;91.60;;;;;;5032531;28;20402;-70
2023/10/09 10:03:32;;;;;;;4.40;3.80;;;29.00;86.20;;;;;;5032307;28;20402;-70
2023/10/09 10:06:04;;;;;;;6.27;4.13;;;28.70;82.40;;;;;;5031037;28;20438;-70
2023/10/09 10:08:32;;;;;;;6.10;4.27;;;28.70;84.30;;;;;;5039088;28;20931;-70
2023/10/09 10:11:04;;;;;;;8.27;3.80;;;29.80;80.10;;;;;;5030780;28;20966;-70
2023/10/09 10:13:42;;;;;;;5.60;3.83;;;30.60;71.50;;;;;;5032027;28;20418;-70
2023/10/09 10:16:13;;;;;;;9.50;3.90;;;30.80;67.10;;;;;;5032053;28;20434;-70
2023/10/09 10:19:06;;;;;;;5.00;3.50;;;30.50;62.50;;;;;;5030701;28;20876;-70
2023/10/09 10:21:40;;;;;;;6.20;3.27;;;30.40;62.10;;;;;;5032062;28;20477;-70
2023/10/09 10:24:31;;;;;;;3.73;3.27;;;30.40;62.20;;;;;;5030915;28;20820;-70
2023/10/09 10:27:26;;;;;;;7.23;3.40;;;29.90;59.90;;;;;;5030633;28;20430;-70
2023/10/09 10:30:13;;;;;;;5.13;3.87;;;29.50;60.50;;;;;;5031792;28;20426;-70
2023/10/09 10:32:51;;;;;;;4.87;3.67;;;29.10;60.70;;;;;;5033197;28;20422;-70
2023/10/09 10:35:20;;;;;;;4.70;3.30;;;29.20;64.10;;;;;;5032166;28;20411;-70
2023/10/09 10:38:00;;;;;;;4.13;3.60;;;29.10;61.30;;;;;;5044633;28;20802;-70
2023/10/09 10:40:45;;;;;;;7.03;3.00;;;29.10;63.30;;;;;;5031824;28;20399;-70
2023/10/09 10:46:30;;;;;;;6.70;4.60;;;29.10;64.70;;;;;;5032584;28;20917;-70
2023/10/09 10:48:58;;;;;;;4.80;3.43;;;29.10;63.40;;;;;;5031293;28;20414;-70
2023/10/09 10:51:34;;;;;;;4.60;3.27;;;29.20;64.10;;;;;;5031891;28;20943;-70
2023/10/09 10:54:26;;;;;;;4.47;3.40;;;29.30;64.80;;;;;;5031839;28;20406;-70
2023/10/09 10:56:49;;;;;;;4.40;2.97;;;29.40;63.60;;;;;;5031474;28;20571;-70
2023/10/09 10:59:22;;;;;;;7.43;3.50;;;29.40;63.50;;;;;;5029651;28;20461;-71
2023/10/09 11:01:53;;;;;;;5.80;3.17;;;29.30;59.50;;;;;;5030136;28;20410;-71
2023/10/09 11:07:24;;;;;;;6.73;5.70;;;29.30;62.00;;;;;;5031371;28;20430;-71
2023/10/09 11:16:14;;;;;;;4.20;3.20;;;29.70;63.70;;;;;;5063720;28;20418;-67
2023/10/09 11:18:46;;;;;;;5.97;3.43;;;29.90;63.40;;;;;;5032742;28;20563;-70
2023/10/09 11:26:25;;;;;;;4.27;2.90;;;30.60;60.50;;;;;;5035185;28;20912;-70
2023/10/09 11:29:23;;;;;;;2.70;2.50;;;30.70;59.70;;;;;;5035197;28;20398;-70
2023/10/09 11:32:17;;;;;;;8.00;3.47;;;30.90;60.00;;;;;;5041412;28;20445;-70
2023/10/09 11:34:52;;;;;;;6.80;3.27;;;31.10;60.20;;;;;;5049344;28;20821;-68
2023/10/09 11:37:53;;;;;;;3.87;3.20;;;31.10;58.80;;;;;;5037073;28;21124;-68
2023/10/09 11:43:14;;;;;;;2.97;2.60;;;31.10;56.80;;;;;;5035102;28;20393;-70
2023/10/09 11:45:53;;;;;;;5.50;3.00;;;31.10;56.10;;;;;;5034988;28;20430;-70
2023/10/09 11:48:33;;;;;;;3.80;3.20;;;31.10;55.70;;;;;;5034839;28;20218;-70
2023/10/09 11:55:53;;;;;;;4.70;3.33;;;30.70;55.00;;;;;;5034830;28;20938;-68
2023/10/09 11:58:22;;;;;;;4.70;3.23;;;30.50;54.50;;;;;;5034558;28;20677;-69
2023/10/09 12:00:59;;;;;;;4.33;3.67;;;30.30;54.70;;;;;;5033469;28;20159;-68
2023/10/09 12:03:28;;;;;;;5.37;3.47;;;30.20;55.50;;;;;;5034980;28;20993;-70
2023/10/09 12:05:56;;;;;;;5.23;3.00;;;30.10;56.10;;;;;;5034467;28;20418;-70
2023/10/09 12:08:26;;;;;;;4.53;3.13;;;30.00;56.20;;;;;;5034391;28;20413;-70
2023/10/09 12:10:55;;;;;;;4.57;3.27;;;29.90;55.90;;;;;;5035477;28;20928;-70
2023/10/09 12:13:25;;;;;;;5.73;3.67;;;29.90;56.60;;;;;;5035756;28;20504;-70
2023/10/09 12:15:54;;;;;;;3.73;3.10;;;30.00;57.50;;;;;;5035294;28;20477;-70
2023/10/09 12:18:21;;;;;;;4.33;3.60;;;30.10;57.70;;;;;;5034001;28;20468;-69
2023/10/09 12:20:50;;;;;;;3.77;3.20;;;30.10;58.10;;;;;;5034241;28;20863;-69
2023/10/09 12:23:17;;;;;;;6.17;2.87;;;30.20;57.90;;;;;;5034333;28;20395;-70
2023/10/09 12:25:46;;;;;;;4.80;3.90;;;30.10;57.60;;;;;;5034011;28;20461;-70
2023/10/09 12:28:13;;;;;;;7.47;3.33;;;30.00;57.70;;;;;;5034025;28;20421;-70
2023/10/09 12:30:41;;;;;;;4.67;3.50;;;29.90;57.90;;;;;;5032882;28;20430;-70
2023/10/09 12:33:08;;;;;;;5.70;3.97;;;29.90;58.40;;;;;;5035763;28;20915;-70
2023/10/09 12:35:40;;;;;;;5.13;3.30;;;29.80;58.30;;;;;;5039413;28;20519;-69
2023/10/09 12:38:10;;;;;;;5.83;3.23;;;29.70;57.70;;;;;;5026240;28;20478;-70
2023/10/09 12:40:36;;;;;;;5.80;3.80;;;29.60;57.70;;;;;;5033981;28;20428;-70
2023/10/09 12:43:03;;;;;;;6.83;3.80;;;29.30;57.40;;;;;;5040527;28;20421;-70
2023/10/09 12:45:42;;;;;;;5.13;3.80;;;29.10;58.10;;;;;;5050558;28;20422;-68
2023/10/09 12:48:25;;;;;;;6.10;3.73;;;28.80;58.40;;;;;;5052722;28;20434;-69
2023/10/09 12:51:16;;;;;;;3.90;3.00;;;28.50;59.30;;;;;;5032913;28;20502;-70
2023/10/09 12:53:41;;;;;;;5.10;3.40;;;28.10;60.20;;;;;;5013797;28;20407;-70
2023/10/09 12:56:07;;;;;;;5.50;5.00;;;27.90;61.30;;;;;;5013620;28;20825;-70
2023/10/09 12:58:37;;;;;;;10.53;5.90;;;27.70;62.30;;;;;;5013557;28;20226;-70
2023/10/09 13:01:09;;;;;;;5.57;4.03;;;27.50;63.10;;;;;;5020879;28;20783;-70
2023/10/09 13:03:38;;;;;;;4.37;3.83;;;27.40;64.20;;;;;;5046439;28;20508;-71
2023/10/09 13:06:15;;;;;;;6.27;4.27;;;27.20;64.40;;;;;;5045551;28;20569;-70
2023/10/09 13:08:42;;;;;;;5.43;4.80;;;27.10;65.40;;;;;;5045367;28;20418;-70
2023/10/09 13:11:12;;;;;;;8.53;5.07;;;26.90;66.30;;;;;;5033311;28;20406;-70
2023/10/09 13:13:47;;;;;;;5.60;3.70;;;26.70;67.20;;;;;;5033295;28;20402;-70
2023/10/09 13:16:25;;;;;;;5.90;4.27;;;26.50;68.20;;;;;;5033181;28;20422;-69
2023/10/09 13:18:53;;;;;;;7.10;3.70;;;26.40;69.30;;;;;;5032958;28;20464;-69
2023/10/09 13:21:20;;;;;;;7.17;4.10;;;26.20;70.60;;;;;;5042263;28;20402;-71
2023/10/09 13:23:54;;;;;;;5.07;3.17;;;26.00;72.10;;;;;;5046181;28;20452;-70
2023/10/09 13:26:29;;;;;;;6.60;3.40;;;25.90;72.70;;;;;;5045081;28;20508;-69
2023/10/09 13:29:03;;;;;;;4.90;4.03;;;25.90;74.10;;;;;;5046795;28;20416;-71
2023/10/09 13:31:33;;;;;;;4.90;3.00;;;25.80;73.60;;;;;;5043883;28;20414;-71
2023/10/09 13:34:01;;;;;;;5.83;3.50;;;25.80;73.40;;;;;;5046176;28;20423;-71
2023/10/09 13:36:34;;;;;;;5.40;3.60;;;25.80;74.10;;;;;;5047288;28;20499;-70
2023/10/09 13:42:01;;;;;;;6.30;4.30;;;25.80;74.90;;;;;;5047426;28;20462;-71
2023/10/09 13:44:27;;;;;;;5.17;3.53;;;25.90;75.30;;;;;;5046850;28;20398;-70
2023/10/09 13:46:55;;;;;;;5.13;3.60;;;26.10;74.50;;;;;;5046020;28;20415;-70
2023/10/09 13:49:22;;;;;;;4.97;3.90;;;26.10;74.10;;;;;;5046431;28;20409;-71
2023/10/09 13:51:51;;;;;;;6.00;3.67;;;26.30;74.40;;;;;;5046911;28;20456;-69
2023/10/09 13:54:20;;;;;;;6.27;3.83;;;26.40;73.70;;;;;;5047288;28;20431;-70
2023/10/09 13:56:49;;;;;;;4.63;3.77;;;26.50;74.20;;;;;;5048458;28;20505;-70
2023/10/09 13:59:20;;;;;;;8.13;4.20;;;26.80;73.00;;;;;;5048180;28;20482;-70
2023/10/09 14:01:47;;;;;;;7.90;4.57;;;27.20;71.80;;;;;;5037747;28;20431;-69
2023/10/09 14:04:18;;;;;;;5.97;4.17;;;27.70;71.20;;;;;;5032422;28;20882;-70
2023/10/09 14:06:44;;;;;;;7.60;3.20;;;28.10;69.20;;;;;;5030985;28;20796;-70
2023/10/09 14:09:11;;;;;;;4.70;3.37;;;28.40;67.20;;;;;;5032193;28;20421;-70
2023/10/09 14:11:44;;;;;;;7.00;4.07;;;28.80;66.10;;;;;;5045960;28;20406;-71
2023/10/09 14:14:11;;;;;;;4.77;3.40;;;29.10;65.30;;;;;;5035478;28;20406;-68
2023/10/09 14:16:37;;;;;;;5.50;4.07;;;29.40;63.70;;;;;;5032054;28;20433;-69
2023/10/09 14:19:07;;;;;;;4.63;3.90;;;29.70;61.90;;;;;;5031824;28;20445;-71
2023/10/09 14:21:37;;;;;;;5.70;3.87;;;30.00;60.00;;;;;;5032609;28;20642;-69
2023/10/09 14:24:15;;;;;;;6.97;5.10;;;30.20;59.10;;;;;;5032931;28;20779;-70
2023/10/09 14:26:41;;;;;;;6.70;4.50;;;30.50;58.80;;;;;;5047150;28;20441;-71
2023/10/09 14:29:07;;;;;;;4.27;3.87;;;30.80;57.90;;;;;;5045284;28;20960;-69
2023/10/09 14:31:38;;;;;;;5.80;3.73;;;31.00;57.80;;;;;;5030898;28;20418;-70
2023/10/09 14:34:05;;;;;;;5.83;3.30;;;31.30;57.20;;;;;;5032042;28;20171;-70
2023/10/09 14:36:33;;;;;;;4.57;3.77;;;31.60;56.30;;;;;;5037124;28;20427;-72
2023/10/09 14:39:00;;;;;;;7.90;3.93;;;31.60;55.30;;;;;;5043184;28;20458;-70
2023/10/09 14:41:27;;;;;;;7.97;3.80;;;31.50;55.10;;;;;;5032013;28;20398;-70
2023/10/09 14:43:53;;;;;;;5.60;3.93;;;31.20;54.30;;;;;;5031783;28;20413;-70
2023/10/09 14:46:25;;;;;;;4.63;3.70;;;31.00;54.50;;;;;;5030409;28;20438;-70
2023/10/09 14:48:52;;;;;;;5.60;4.17;;;30.70;55.30;;;;;;5031903;28;20403;-70
2023/10/09 14:51:27;;;;;;;6.50;3.60;;;30.50;55.40;;;;;;5035990;28;20406;-70
2023/10/09 14:54:03;;;;;;;6.77;4.23;;;30.40;56.10;;;;;;5035936;28;20408;-71
2023/10/09 14:56:29;;;;;;;6.13;4.20;;;30.40;56.50;;;;;;5035671;28;20452;-68
2023/10/09 14:58:56;;;;;;;7.60;4.90;;;30.50;56.60;;;;;;5035540;28;21028;-68
2023/10/09 15:01:24;;;;;;;5.50;4.47;;;30.50;56.10;;;;;;5049083;28;20402;-71
2023/10/09 15:03:57;;;;;;;5.43;4.60;;;30.10;55.60;;;;;;5049937;28;20418;-71
2023/10/09 15:06:27;;;;;;;5.70;5.07;;;29.50;56.20;;;;;;5035175;28;20446;-71
2023/10/09 15:08:52;;;;;;;8.10;4.97;;;28.80;56.90;;;;;;5043181;28;20422;-68
2023/10/09 15:11:23;;;;;;;9.40;4.90;;;28.20;58.20;;;;;;5035832;28;20797;-68
2023/10/09 15:13:48;;;;;;;5.83;4.03;;;27.70;59.30;;;;;;5034544;28;20207;-68
2023/10/09 15:16:14;;;;;;;6.23;3.93;;;27.20;60.90;;;;;;5044627;28;20425;-71
2023/10/09 15:18:39;;;;;;;5.30;4.33;;;26.80;62.50;;;;;;5048125;28;20195;-71
2023/10/09 15:21:06;;;;;;;5.43;4.00;;;26.40;64.30;;;;;;5035569;28;20215;-68
2023/10/09 15:23:31;;;;;;;6.33;4.60;;;26.10;66.40;;;;;;5035554;28;20183;-68
2023/10/09 15:25:57;;;;;;;10.03;4.20;;;25.80;68.30;;;;;;5035344;28;20417;-70
2023/10/09 15:28:23;;;;;;;6.53;4.60;;;25.50;69.80;;;;;;5035392;28;20179;-70
2023/10/09 15:30:49;;;;;;;7.37;4.20;;;25.20;71.90;;;;;;5034246;28;20179;-70
2023/10/09 15:33:18;;;;;;;4.70;4.10;;;24.90;73.90;;;;;;5035196;28;20255;-69
2023/10/09 15:35:49;;;;;;;6.23;4.97;;;24.70;76.50;;;;;;5035015;28;20461;-69
2023/10/09 15:38:15;;;;;;;6.93;6.23;;;24.50;80.10;;;;;;5035000;28;20446;-70
2023/10/09 15:40:43;;;;;;;8.10;4.90;;;24.70;85.80;;;;;;5035385;28;20406;-68
2023/10/09 15:43:13;;;;;;;8.53;4.50;;;24.80;88.30;;;;;;5041801;28;20833;-70
2023/10/09 15:45:44;;;;;;;8.73;4.67;;;24.90;88.90;;;;;;5051598;28;20449;-71
2023/10/09 15:48:11;;;;;;;6.57;4.40;;;24.90;88.50;;;;;;5040164;28;20410;-68
2023/10/09 15:50:38;;;;;;;8.23;6.30;;;24.90;87.80;;;;;;5034893;28;20452;-68
2023/10/09 15:53:03;;;;;;;9.27;6.40;;;24.60;87.60;;;;;;5034833;28;20407;-69
2023/10/09 15:55:29;;;;;;;11.37;7.67;;;24.30;88.60;;;;;;5033245;28;20424;-69